Time;durP1;ratioP1;P1;durP2;ratioP2;P2;SDS_P1;SDS_P2;PMS_P1;PMS_P2;Temp;Humidity;BMP_temperature;BMP_pressure;BME280_temperature;BME280_humidity;BME280_pressure;Samples;Min_cycle;Max_cycle;Signal;HPM_P1;HPM_P2
2023/12/18 00:00:22;;;;;;;5.50;1.50;;;;;;;-145.63;55.65;39317.59;5059992;28;20016;-66
2023/12/18 00:02:48;;;;;;;4.97;1.88;;;;;;;-145.63;55.53;39343.03;5059768;28;20025;-68
2023/12/18 00:05:14;;;;;;;7.18;1.48;;;;;;;-145.63;55.50;39364.53;5058831;28;20021;-68
2023/12/18 00:07:39;;;;;;;5.55;1.30;;;;;;;-145.63;55.98;39352.81;5059991;28;20246;-66
2023/12/18 00:10:05;;;;;;;4.13;1.85;;;;;;;-145.63;55.91;39356.72;5061102;28;20032;-67
2023/12/18 00:12:31;;;;;;;4.72;1.85;;;;;;;-145.63;55.76;39344.97;5060066;28;20025;-66
2023/12/18 00:14:57;;;;;;;4.22;1.45;;;;;;;-145.63;56.05;39313.69;5059891;28;20297;-65
2023/12/18 00:17:22;;;;;;;6.40;1.85;;;;;;;-145.63;55.46;39329.34;5059978;28;20063;-65
2023/12/18 00:19:48;;;;;;;4.72;1.80;;;;;;;-145.63;55.74;39331.28;5055557;28;20056;-67
2023/12/18 00:22:14;;;;;;;6.47;1.77;;;;;;;-145.63;55.81;39360.63;5042238;28;20092;-67
2023/12/18 00:24:40;;;;;;;5.53;1.77;;;;;;;-145.63;55.51;39343.03;5065393;28;20028;-68
2023/12/18 00:27:06;;;;;;;5.20;2.05;;;;;;;-145.63;55.82;39321.50;5065146;28;20067;-68
2023/12/18 00:29:31;;;;;;;5.97;1.88;;;;;;;-145.63;55.79;39341.06;5065165;28;20344;-68
2023/12/18 00:31:57;;;;;;;8.10;1.63;;;;;;;-145.63;55.58;39337.16;5063547;28;20024;-68
2023/12/18 00:34:23;;;;;;;5.35;1.58;;;;;;;-145.63;56.10;39341.06;5064134;28;20040;-68
2023/12/18 00:36:48;;;;;;;5.20;1.42;;;;;;;-145.63;55.74;39309.78;5064412;28;20033;-65
2023/12/18 00:39:15;;;;;;;6.28;1.77;;;;;;;-145.63;55.47;39309.78;5062210;28;20057;-66
2023/12/18 00:41:45;;;;;;;5.78;1.90;;;;;;;-145.63;55.22;39358.66;5065099;28;20328;-66
2023/12/18 00:44:11;;;;;;;5.07;1.58;;;;;;;-145.63;55.39;39331.28;5065366;28;20017;-66
2023/12/18 00:46:36;;;;;;;7.90;1.90;;;;;;;-145.63;54.74;39337.16;5065117;28;20032;-66
2023/12/18 00:49:02;;;;;;;7.13;2.05;;;;;;;-145.63;55.63;39329.34;5064739;28;20048;-65
2023/12/18 00:51:28;;;;;;;5.90;1.77;;;;;;;-145.63;55.78;39339.13;5063612;28;20032;-66
2023/12/18 00:53:54;;;;;;;5.80;1.77;;;;;;;-145.63;55.87;39315.66;5063056;28;20028;-65
2023/12/18 00:56:19;;;;;;;5.68;1.67;;;;;;;-145.63;55.48;39305.88;5063406;28;20327;-68
2023/12/18 00:58:45;;;;;;;3.92;1.55;;;;;;;-145.63;55.27;39329.34;5061999;28;20030;-67
2023/12/18 01:01:11;;;;;;;6.40;2.05;;;;;;;-145.63;55.93;39348.88;5064697;28;20021;-67
2023/12/18 01:03:38;;;;;;;3.85;1.50;;;;;;;-145.63;56.25;39319.56;5063198;28;20029;-68
2023/12/18 01:06:05;;;;;;;5.93;1.92;;;;;;;-145.63;55.67;39384.09;5063657;28;20359;-67
2023/12/18 01:08:30;;;;;;;6.28;1.90;;;;;;;-145.63;55.57;39219.81;5062940;28;20029;-67
2023/12/18 01:10:56;;;;;;;6.68;1.65;;;;;;;-145.63;55.03;39323.47;5063052;28;20253;-66
2023/12/18 01:13:22;;;;;;;7.15;2.10;;;;;;;-145.63;55.09;39335.19;5064072;28;20047;-68
2023/12/18 01:15:48;;;;;;;6.35;1.67;;;;;;;-145.63;55.53;39356.72;5063455;28;20397;-65
2023/12/18 01:18:14;;;;;;;5.22;1.48;;;;;;;-145.63;55.47;39362.59;5062793;28;20032;-65
2023/12/18 01:20:40;;;;;;;6.65;1.73;;;;;;;-145.63;55.22;39344.97;5064545;28;20368;-65
2023/12/18 01:23:05;;;;;;;7.47;1.80;;;;;;;-145.63;55.06;39356.72;5064570;28;20033;-65
2023/12/18 01:25:32;;;;;;;7.47;1.92;;;;;;;-145.63;55.57;39327.38;5062931;28;20075;-66
2023/12/18 01:27:58;;;;;;;5.15;2.38;;;;;;;-145.63;55.53;39348.88;5044574;28;20034;-66
2023/12/18 01:30:23;;;;;;;3.47;1.58;;;;;;;-145.63;55.49;39327.38;5051339;28;20361;-67
2023/12/18 01:32:49;;;;;;;6.53;1.83;;;;;;;-145.63;55.24;39339.13;5055402;28;20044;-67
2023/12/18 01:35:15;;;;;;;5.40;1.85;;;;;;;-145.63;55.10;39305.88;5064034;28;20056;-67
2023/12/18 01:37:40;;;;;;;7.50;2.10;;;;;;;-145.63;55.41;39341.06;5061405;28;20088;-67
2023/12/18 01:40:07;;;;;;;6.10;1.90;;;;;;;-145.63;55.21;39319.56;5043924;28;20048;-68
2023/12/18 01:42:33;;;;;;;4.28;1.50;;;;;;;-145.63;54.97;39325.41;5062609;28;20024;-67
2023/12/18 01:44:59;;;;;;;8.75;1.92;;;;;;;-145.63;54.80;39335.19;5063546;28;20033;-68
2023/12/18 01:47:25;;;;;;;6.22;1.60;;;;;;;-145.63;55.11;39303.91;5064168;28;20092;-68
2023/12/18 01:49:51;;;;;;;6.15;1.80;;;;;;;-145.63;55.33;39305.88;5063854;28;20037;-67
2023/12/18 01:52:18;;;;;;;5.28;2.17;;;;;;;-145.63;54.51;39323.47;5064108;28;20021;-67
2023/12/18 01:54:45;;;;;;;6.57;1.70;;;;;;;-145.63;54.74;39346.94;5043369;28;20289;-68
2023/12/18 01:57:12;;;;;;;4.03;1.50;;;;;;;-145.63;54.89;39348.88;5059003;28;20321;-66
2023/12/18 01:59:39;;;;;;;5.82;1.67;;;;;;;-145.63;54.51;39188.53;5053301;28;20318;-66
2023/12/18 02:02:05;;;;;;;5.85;1.95;;;;;;;-145.63;54.80;39335.19;5049734;28;20036;-65
2023/12/18 02:04:31;;;;;;;8.88;1.73;;;;;;;-145.63;55.10;39317.59;5063502;28;20087;-66
2023/12/18 02:07:01;;;;;;;6.75;2.28;;;;;;;-145.63;54.85;39419.31;5063642;28;20033;-66
2023/12/18 02:09:27;;;;;;;5.75;1.60;;;;;;;-145.63;54.69;39300.00;5063850;28;20063;-66
2023/12/18 02:11:52;;;;;;;7.72;1.95;;;;;;;-145.63;54.25;39325.41;5051206;28;20033;-65
2023/12/18 02:14:18;;;;;;;8.98;1.88;;;;;;;-145.63;54.07;39341.06;5051328;28;20032;-67
2023/12/18 02:16:44;;;;;;;4.78;1.45;;;;;;;-145.63;54.05;39321.50;5061034;28;20033;-68
2023/12/18 02:19:24;;;;;;;5.75;1.70;;;;;;;-145.63;54.24;39343.03;5043520;28;20203;-66
2023/12/18 02:21:49;;;;;;;9.75;2.35;;;;;;;-145.63;53.82;39329.34;5062434;28;20259;-66
2023/12/18 02:24:15;;;;;;;6.32;1.67;;;;;;;-145.63;53.82;39317.59;5048219;28;20032;-67
2023/12/18 02:26:41;;;;;;;8.15;2.50;;;;;;;-145.63;53.64;39301.94;5056379;28;20029;-67
2023/12/18 02:29:07;;;;;;;5.90;1.75;;;;;;;-145.63;53.59;39317.59;5057518;28;20061;-67
2023/12/18 02:31:36;;;;;;;5.95;1.88;;;;;;;-145.63;54.19;39301.94;5044531;28;20032;-67
2023/12/18 02:34:01;;;;;;;7.60;2.42;;;;;;;-145.63;54.68;39352.81;5063116;28;20090;-67
2023/12/18 02:36:28;;;;;;;8.25;1.80;;;;;;;-145.63;54.25;39337.16;5045280;28;20368;-66
2023/12/18 02:38:54;;;;;;;5.75;1.50;;;;;;;-145.63;53.63;39370.41;5055141;28;20325;-67
2023/12/18 02:41:20;;;;;;;13.80;2.83;;;;;;;-145.63;54.36;39344.97;5055613;28;20029;-67
2023/12/18 02:43:46;;;;;;;5.88;1.58;;;;;;;-145.63;54.80;39309.78;5045788;28;20041;-67
2023/12/18 02:46:12;;;;;;;4.38;2.10;;;;;;;-145.63;54.30;39325.41;5063171;28;20278;-66
2023/12/18 02:48:38;;;;;;;6.13;1.67;;;;;;;-145.63;54.76;39313.69;5063118;28;20029;-66
2023/12/18 02:51:04;;;;;;;7.00;1.77;;;;;;;-145.63;55.26;39343.03;5061661;28;20186;-66
2023/12/18 02:53:29;;;;;;;5.60;2.08;;;;;;;-145.63;54.49;39305.88;5054267;28;20026;-66
2023/12/18 02:55:55;;;;;;;9.10;2.40;;;;;;;-145.63;54.64;39311.72;5046852;28;20236;-66
2023/12/18 02:58:22;;;;;;;7.72;2.20;;;;;;;-145.63;55.01;39339.13;5062797;28;20021;-67
2023/12/18 03:00:49;;;;;;;4.53;2.35;;;;;;;-145.63;55.20;39313.69;5042070;28;20171;-66
2023/12/18 03:03:15;;;;;;;5.50;1.98;;;;;;;-145.63;55.32;39315.66;5056683;28;20039;-66
2023/12/18 03:05:41;;;;;;;8.20;2.45;;;;;;;-145.63;54.84;39327.38;5062674;28;20089;-66
2023/12/18 03:08:07;;;;;;;8.25;2.35;;;;;;;-145.63;54.86;39077.06;5062811;28;20025;-68
2023/12/18 03:10:33;;;;;;;6.22;2.10;;;;;;;-145.63;55.09;39333.25;5061836;28;20082;-66
2023/12/18 03:12:59;;;;;;;8.52;2.30;;;;;;;-145.63;55.30;39296.09;5043628;28;20025;-66
2023/12/18 03:15:24;;;;;;;9.23;2.55;;;;;;;-145.63;54.39;39315.66;5061054;28;20025;-67
2023/12/18 03:17:50;;;;;;;7.10;2.15;;;;;;;-145.63;55.16;39282.41;5062222;28;20097;-68
2023/12/18 03:20:16;;;;;;;10.70;2.70;;;;;;;-145.63;54.98;39327.38;5062504;28;20028;-68
2023/12/18 03:22:41;;;;;;;4.93;2.20;;;;;;;-145.63;55.06;39303.91;5062708;28;20257;-68
2023/12/18 03:25:08;;;;;;;10.23;2.45;;;;;;;-145.63;55.21;39317.59;5062533;28;20522;-67
2023/12/18 03:27:33;;;;;;;7.72;2.38;;;;;;;-145.63;55.90;39309.78;5045094;28;20032;-66
2023/12/18 03:29:59;;;;;;;9.70;2.25;;;;;;;-145.63;55.37;39301.94;5055026;28;20025;-66
2023/12/18 03:32:25;;;;;;;6.00;2.00;;;;;;;-145.63;55.24;39311.72;5054413;28;20026;-66
2023/12/18 03:34:51;;;;;;;4.72;2.08;;;;;;;-145.63;55.66;39343.03;5045126;28;20297;-67
2023/12/18 03:37:16;;;;;;;8.27;2.65;;;;;;;-145.63;56.02;39298.03;5062480;28;20075;-67
2023/12/18 03:39:42;;;;;;;11.40;2.20;;;;;;;-145.63;55.37;39327.38;5044055;28;20049;-67
2023/12/18 03:42:08;;;;;;;6.65;2.22;;;;;;;-145.63;56.13;39313.69;5055698;28;20028;-66
2023/12/18 03:44:33;;;;;;;9.85;2.78;;;;;;;-145.63;55.80;39313.69;5062156;28;20075;-66
2023/12/18 03:46:59;;;;;;;6.68;2.08;;;;;;;-145.63;56.53;39350.84;5062084;28;20033;-67
2023/12/18 03:49:25;;;;;;;9.60;3.05;;;;;;;-145.63;55.91;39329.34;5062137;28;20205;-67
2023/12/18 03:51:52;;;;;;;7.50;2.97;;;;;;;-145.63;56.01;39290.22;5062022;28;20304;-66
2023/12/18 03:54:18;;;;;;;9.82;2.60;;;;;;;-145.63;55.88;39337.16;5047283;28;20195;-66
2023/12/18 03:56:43;;;;;;;5.78;2.55;;;;;;;-145.63;56.59;39311.72;5056285;28;20056;-68
2023/12/18 03:59:09;;;;;;;13.07;3.25;;;;;;;-145.63;56.52;39321.50;5060627;28;20040;-67
2023/12/18 04:01:36;;;;;;;7.43;2.78;;;;;;;-145.63;56.39;39315.66;5059890;28;20025;-68
2023/12/18 04:04:02;;;;;;;5.82;2.88;;;;;;;-145.63;56.91;39348.88;5065988;28;20090;-67
2023/12/18 04:06:28;;;;;;;9.73;2.75;;;;;;;-145.63;56.65;39319.56;5065896;28;20318;-67
2023/12/18 04:08:54;;;;;;;10.65;2.42;;;;;;;-145.63;57.09;39313.69;5065774;28;20095;-67
2023/12/18 04:11:23;;;;;;;7.28;3.28;;;;;;;-145.63;57.05;39303.91;5059107;28;20037;-66
2023/12/18 04:13:50;;;;;;;6.45;2.17;;;;;;;-145.63;56.78;39311.72;5048196;28;20079;-67
2023/12/18 04:16:15;;;;;;;6.20;2.20;;;;;;;-145.63;57.11;39307.81;5065477;28;20044;-67
2023/12/18 04:18:41;;;;;;;7.90;2.60;;;;;;;-145.63;56.76;39354.75;5047928;28;20060;-68
2023/12/18 04:21:07;;;;;;;9.00;2.60;;;;;;;-145.63;57.14;39317.59;5058822;28;20298;-68
2023/12/18 04:23:33;;;;;;;9.77;2.83;;;;;;;-145.63;57.29;39294.13;5065603;28;20315;-68
2023/12/18 04:25:59;;;;;;;9.77;2.85;;;;;;;-145.63;57.39;39425.16;5061789;28;20101;-67
2023/12/18 04:28:24;;;;;;;7.47;2.58;;;;;;;-145.63;57.89;39329.34;5045621;28;20025;-67
2023/12/18 04:30:50;;;;;;;9.38;2.55;;;;;;;-145.63;58.30;39309.78;5064345;28;20020;-66
2023/12/18 04:33:16;;;;;;;11.30;2.63;;;;;;;-145.63;58.05;39311.72;5065485;28;20302;-68
2023/12/18 04:35:42;;;;;;;8.55;2.50;;;;;;;-145.63;58.67;39313.69;5060924;28;20062;-63
2023/12/18 04:38:07;;;;;;;7.70;2.88;;;;;;;-145.63;58.82;39301.94;5070144;28;20066;-64
2023/12/18 04:40:33;;;;;;;5.68;2.10;;;;;;;-145.63;58.51;39303.91;5085405;28;20091;-64
2023/12/18 04:42:59;;;;;;;9.30;2.65;;;;;;;-145.63;58.85;39294.13;5065189;28;20025;-65
2023/12/18 04:45:25;;;;;;;9.45;2.90;;;;;;;-145.63;58.92;39294.13;5065394;28;20091;-63
2023/12/18 04:47:50;;;;;;;8.13;2.88;;;;;;;-145.63;59.22;39301.94;5064586;28;20214;-66
2023/12/18 04:50:16;;;;;;;8.05;3.38;;;;;;;-145.63;59.49;39301.94;5064670;28;20037;-68
2023/12/18 04:52:42;;;;;;;8.90;3.17;;;;;;;-145.63;58.82;39317.59;5067255;28;20059;-68
2023/12/18 04:55:08;;;;;;;9.52;3.25;;;;;;;-145.63;59.17;39343.03;5062990;28;20356;-67
2023/12/18 04:57:35;;;;;;;9.23;2.70;;;;;;;-145.63;58.74;39319.56;5064900;28;20367;-67
2023/12/18 05:00:01;;;;;;;9.80;3.20;;;;;;;-145.63;59.26;39321.50;5064094;28;20104;-67
2023/12/18 05:02:30;;;;;;;4.35;2.60;;;;;;;-145.63;59.46;39305.88;5063962;28;20025;-67
2023/12/18 05:04:56;;;;;;;6.90;2.97;;;;;;;-145.63;59.05;39346.94;5058541;28;20029;-67
2023/12/18 05:07:22;;;;;;;6.32;2.40;;;;;;;-145.63;59.38;39305.88;5064727;28;20523;-68
2023/12/18 05:09:47;;;;;;;6.93;3.22;;;;;;;-145.63;59.36;39327.38;5064085;28;20319;-67
2023/12/18 05:12:13;;;;;;;6.78;2.63;;;;;;;-145.63;59.55;39301.94;5064393;28;20194;-66
2023/12/18 05:14:39;;;;;;;11.77;3.38;;;;;;;-145.63;59.63;39319.56;5061938;28;20096;-66
2023/12/18 05:17:05;;;;;;;9.00;2.97;;;;;;;-145.63;59.54;39323.47;5065033;28;20052;-67
2023/12/18 05:19:30;;;;;;;9.60;3.00;;;;;;;-145.63;59.67;39315.66;5063598;28;20237;-65
2023/12/18 05:21:56;;;;;;;10.95;3.28;;;;;;;-145.63;59.65;39303.91;5064294;28;20105;-66
2023/12/18 05:24:22;;;;;;;9.30;3.85;;;;;;;-145.63;59.67;39300.00;5064144;28;20383;-66
2023/12/18 05:26:47;;;;;;;9.40;3.40;;;;;;;-145.63;59.61;39300.00;5054580;28;20025;-65
2023/12/18 05:29:14;;;;;;;13.25;3.85;;;;;;;-145.63;59.78;39305.88;5049637;28;20218;-66
2023/12/18 05:31:39;;;;;;;11.63;3.38;;;;;;;-145.63;59.90;39311.72;5062804;28;20021;-66
2023/12/18 05:34:05;;;;;;;5.78;3.17;;;;;;;-145.63;59.59;39313.69;5044065;28;20115;-66
2023/12/18 05:36:31;;;;;;;9.63;3.53;;;;;;;-145.63;59.61;39313.69;5060070;28;20091;-68
2023/12/18 05:38:56;;;;;;;8.20;2.83;;;;;;;-145.63;59.90;39272.63;5074691;28;20036;-66
2023/12/18 05:41:22;;;;;;;7.15;2.95;;;;;;;-145.63;59.50;39290.22;5077965;28;20036;-66
2023/12/18 05:43:48;;;;;;;10.25;3.20;;;;;;;-145.63;59.35;39315.66;5062773;28;20044;-66
2023/12/18 05:46:14;;;;;;;12.57;3.50;;;;;;;-145.63;59.38;39305.88;5064150;28;20223;-66
2023/12/18 05:48:39;;;;;;;8.80;3.45;;;;;;;-145.63;59.44;39305.88;5063794;28;20222;-66
2023/12/18 05:51:05;;;;;;;6.43;3.42;;;;;;;-145.63;59.88;39323.47;5063716;28;20017;-67
2023/12/18 05:53:31;;;;;;;9.90;3.92;;;;;;;-145.63;60.04;39305.88;5056443;28;20100;-67
2023/12/18 05:55:57;;;;;;;8.07;3.85;;;;;;;-145.63;59.49;39301.94;5046190;28;20080;-67
2023/12/18 05:58:23;;;;;;;8.80;3.92;;;;;;;-145.63;60.27;39395.84;5063761;28;20348;-66
2023/12/18 06:00:48;;;;;;;11.30;4.85;;;;;;;-145.63;59.78;39337.16;5047936;28;20035;-66
2023/12/18 06:03:14;;;;;;;10.38;4.30;;;;;;;-145.63;59.51;39329.34;5060557;28;20036;-65
2023/12/18 06:05:40;;;;;;;10.25;3.92;;;;;;;-145.63;59.61;39301.94;5058566;28;20071;-66
2023/12/18 06:08:06;;;;;;;9.15;4.43;;;;;;;-145.63;59.43;39321.50;5061704;28;20021;-67
2023/12/18 06:10:31;;;;;;;14.27;4.18;;;;;;;-145.63;59.15;38961.66;5063704;28;20028;-67
2023/12/18 06:12:57;;;;;;;10.55;3.72;;;;;;;-145.63;59.11;39298.03;5044310;28;20257;-67
2023/12/18 06:15:23;;;;;;;8.43;4.13;;;;;;;-145.63;59.17;39309.78;5057344;28;20177;-65
2023/12/18 06:17:48;;;;;;;7.95;4.20;;;;;;;-145.63;58.92;39303.91;5053202;28;20092;-66
2023/12/18 06:20:14;;;;;;;9.35;3.65;;;;;;;-145.63;58.90;39335.19;5048059;28;20021;-66
2023/12/18 06:22:40;;;;;;;8.48;4.07;;;;;;;-145.63;59.15;39296.09;5063403;28;20162;-66
2023/12/18 06:25:06;;;;;;;10.43;3.80;;;;;;;-145.63;59.09;39307.81;5055261;28;20028;-65
2023/12/18 06:27:32;;;;;;;11.38;3.90;;;;;;;-145.63;59.32;39300.00;5047598;28;20363;-64
2023/12/18 06:29:57;;;;;;;8.38;3.80;;;;;;;-145.63;59.37;39309.78;5053531;28;20032;-65
2023/12/18 06:32:23;;;;;;;6.65;4.20;;;;;;;-145.63;58.92;39294.13;5063106;28;20025;-65
2023/12/18 06:34:50;;;;;;;11.57;4.53;;;;;;;-145.63;59.11;39321.50;5061625;28;20040;-66
2023/12/18 06:37:16;;;;;;;14.20;4.03;;;;;;;-145.63;58.99;39292.19;5043098;28;20337;-65
2023/12/18 06:39:42;;;;;;;8.63;3.80;;;;;;;-145.63;59.12;39323.47;5059410;28;20095;-65
2023/12/18 06:42:08;;;;;;;11.18;4.10;;;;;;;-145.63;58.83;39210.03;5050897;28;20057;-64
2023/12/18 06:44:34;;;;;;;10.98;4.13;;;;;;;-145.63;59.43;39313.69;5050120;28;20044;-66
2023/12/18 06:47:00;;;;;;;9.55;3.88;;;;;;;-145.63;59.25;39305.88;5062771;28;20029;-65
2023/12/18 06:49:25;;;;;;;9.93;3.75;;;;;;;-145.63;59.13;39270.66;5062940;28;20091;-65
2023/12/18 06:51:51;;;;;;;8.77;4.07;;;;;;;-145.63;59.34;39303.91;5043438;28;20359;-64
2023/12/18 06:54:17;;;;;;;8.65;3.45;;;;;;;-145.63;59.00;39296.09;5059143;28;20037;-64
2023/12/18 06:56:43;;;;;;;7.80;3.65;;;;;;;-145.63;59.36;39294.13;5061641;28;20059;-64
2023/12/18 06:59:09;;;;;;;8.57;3.95;;;;;;;-145.63;59.57;39313.69;5061997;28;20096;-64
2023/12/18 07:01:35;;;;;;;10.40;3.53;;;;;;;-145.63;59.15;39311.72;5062749;28;20025;-64
2023/12/18 07:04:02;;;;;;;7.82;4.10;;;;;;;-145.63;58.60;39300.00;5052130;28;20309;-66
2023/12/18 07:06:28;;;;;;;11.45;3.47;;;;;;;-145.63;59.02;39292.19;5060591;28;20033;-66
2023/12/18 07:08:54;;;;;;;9.60;3.95;;;;;;;-145.63;59.39;39311.72;5061327;28;20332;-66
2023/12/18 07:11:20;;;;;;;8.20;3.83;;;;;;;-145.63;59.17;39276.53;5059929;28;20056;-67
2023/12/18 07:13:45;;;;;;;9.95;3.67;;;;;;;-145.63;59.12;39153.31;5062027;28;20321;-67
2023/12/18 07:16:19;;;;;;;9.43;4.22;;;;;;;-145.63;59.18;39311.72;5054394;28;20055;-65
2023/12/18 07:18:45;;;;;;;10.50;4.07;;;;;;;-145.63;59.11;39323.47;5077072;28;20331;-66
2023/12/18 07:21:10;;;;;;;5.70;3.60;;;;;;;-145.63;59.06;39284.34;5061917;28;20078;-66
2023/12/18 07:23:36;;;;;;;8.82;4.13;;;;;;;-145.63;58.92;39309.78;5060622;28;20075;-67
2023/12/18 07:26:03;;;;;;;6.75;3.78;;;;;;;-145.63;58.63;39247.19;5061451;28;20302;-67
2023/12/18 07:28:28;;;;;;;8.50;3.90;;;;;;;-145.63;59.14;39317.59;5061982;28;20073;-67
2023/12/18 07:30:54;;;;;;;11.05;4.05;;;;;;;-145.63;59.26;39298.03;5062407;28;20298;-68
2023/12/18 07:33:20;;;;;;;9.77;4.43;;;;;;;-145.63;58.91;39243.28;5066079;28;20048;-68
2023/12/18 07:35:46;;;;;;;9.68;4.10;;;;;;;-145.63;58.91;39286.31;5065134;28;20063;-67
2023/12/18 07:38:13;;;;;;;8.52;4.50;;;;;;;-145.63;59.19;39276.53;5065856;28;20041;-67
2023/12/18 07:40:39;;;;;;;5.47;3.80;;;;;;;-145.63;58.74;39280.44;5063286;28;20040;-67
2023/12/18 07:43:05;;;;;;;10.70;5.30;;;;;;;-145.63;58.99;39260.88;5061627;28;20056;-68
2023/12/18 07:45:31;;;;;;;10.07;4.70;;;;;;;-145.63;58.75;39288.25;5080782;28;20135;-66
2023/12/18 07:47:56;;;;;;;10.85;4.55;;;;;;;-145.63;58.79;39298.03;5079395;28;20102;-68
2023/12/18 07:50:22;;;;;;;11.75;5.15;;;;;;;-145.63;58.40;39274.56;5065392;28;20067;-67
2023/12/18 07:52:48;;;;;;;10.95;4.88;;;;;;;-145.63;58.48;39280.44;5062052;28;20033;-68
2023/12/18 07:55:14;;;;;;;9.55;5.35;;;;;;;-145.63;58.55;39270.66;5064839;28;20028;-67
2023/12/18 07:57:42;;;;;;;13.65;5.47;;;;;;;-145.63;58.49;39262.84;5060122;28;20097;-68
2023/12/18 08:00:08;;;;;;;6.57;4.93;;;;;;;-145.63;58.55;39268.72;5062700;28;20033;-67
2023/12/18 08:02:34;;;;;;;9.63;4.60;;;;;;;-145.63;58.74;39282.41;5060982;28;20244;-66
2023/12/18 08:05:00;;;;;;;8.38;4.30;;;;;;;-145.63;58.45;39290.22;5061463;28;20059;-68
2023/12/18 08:07:26;;;;;;;8.63;4.25;;;;;;;-145.63;58.72;39270.66;5064687;28;20340;-68
2023/12/18 08:09:52;;;;;;;7.25;4.47;;;;;;;-145.63;58.80;39286.31;5080442;28;20029;-67
2023/12/18 08:12:18;;;;;;;9.90;4.53;;;;;;;-145.63;58.94;39276.53;5062860;28;20325;-67
2023/12/18 08:14:44;;;;;;;8.45;4.30;;;;;;;-145.63;58.57;39268.72;5058228;28;20026;-67
2023/12/18 08:17:12;;;;;;;7.35;4.10;;;;;;;-145.63;58.28;39268.72;5060955;28;20121;-65
2023/12/18 08:19:38;;;;;;;7.28;4.20;;;;;;;-145.63;58.27;39266.75;5064306;28;20025;-66
2023/12/18 08:22:04;;;;;;;10.52;4.53;;;;;;;-145.63;58.78;39331.28;5062130;28;20035;-68
2023/12/18 08:24:29;;;;;;;9.38;4.80;;;;;;;-145.63;58.92;39323.47;5063360;28;20340;-65
2023/12/18 08:26:55;;;;;;;12.55;4.97;;;;;;;-145.63;58.71;39315.66;5063849;28;20025;-68
2023/12/18 08:29:21;;;;;;;11.90;5.43;;;;;;;-145.63;58.74;39294.13;5063821;28;20052;-66
2023/12/18 08:31:47;;;;;;;6.70;4.20;;;;;;;-145.63;58.72;39262.84;5059617;28;20284;-66
2023/12/18 08:34:12;;;;;;;10.80;4.90;;;;;;;-145.63;58.76;39286.31;5059483;28;20076;-67
2023/12/18 08:36:38;;;;;;;7.15;4.78;;;;;;;-145.63;58.27;39286.31;5060359;28;20028;-66
2023/12/18 08:39:08;;;;;;;8.80;4.35;;;;;;;-145.63;58.13;39401.69;5065057;28;20045;-66
2023/12/18 08:41:35;;;;;;;10.07;4.72;;;;;;;-145.63;58.42;39278.47;5058776;28;20115;-67
2023/12/18 08:44:01;;;;;;;8.23;4.30;;;;;;;-145.63;58.09;39298.03;5063801;28;20039;-66
2023/12/18 08:46:26;;;;;;;9.20;3.92;;;;;;;-145.63;58.24;39298.03;5062447;28;20052;-65
2023/12/18 08:48:52;;;;;;;8.63;4.03;;;;;;;-145.63;58.17;39307.81;5063672;28;20013;-67
2023/12/18 08:51:18;;;;;;;7.80;3.92;;;;;;;-145.63;58.36;39288.25;5062994;28;20032;-64
2023/12/18 08:53:44;;;;;;;7.85;3.83;;;;;;;-145.63;58.78;39305.88;5063913;28;20360;-67
2023/12/18 08:56:09;;;;;;;8.95;4.30;;;;;;;-145.63;58.63;39294.13;5058713;28;20029;-67
2023/12/18 08:58:35;;;;;;;10.15;3.75;;;;;;;-145.63;58.87;39307.81;5060937;28;20020;-66
2023/12/18 09:01:01;;;;;;;9.32;4.03;;;;;;;-145.63;58.53;39341.06;5063611;28;20243;-67
2023/12/18 09:03:29;;;;;;;8.48;3.58;;;;;;;-145.63;58.72;39346.94;5059446;28;20314;-65
2023/12/18 09:05:55;;;;;;;8.90;3.97;;;;;;;-145.63;58.59;39303.91;5060199;28;20028;-66
2023/12/18 09:08:21;;;;;;;10.90;3.92;;;;;;;-145.63;58.80;39319.56;5061149;28;20340;-67
2023/12/18 09:10:46;;;;;;;6.90;4.60;;;;;;;-145.63;58.78;39292.19;5060983;28;20278;-68
2023/12/18 09:13:12;;;;;;;10.15;5.07;;;;;;;-145.63;58.84;39329.34;5062773;28;20091;-67
2023/12/18 09:15:40;;;;;;;7.55;4.30;;;;;;;-145.63;58.75;39350.84;5062143;28;20067;-66
2023/12/18 09:18:07;;;;;;;8.27;4.25;;;;;;;-145.63;59.24;39300.00;5062398;28;20329;-66
2023/12/18 09:20:33;;;;;;;10.82;4.70;;;;;;;-145.63;59.01;39339.13;5061827;28;20047;-67
2023/12/18 09:22:58;;;;;;;7.03;4.35;;;;;;;-145.63;59.51;39337.16;5061682;28;20080;-67
2023/12/18 09:25:24;;;;;;;8.98;4.07;;;;;;;-145.63;59.99;39341.06;5087152;28;20020;-66
2023/12/18 09:27:50;;;;;;;10.65;4.57;;;;;;;-145.63;60.33;39294.13;5063228;28;20278;-67
2023/12/18 09:30:15;;;;;;;10.32;4.63;;;;;;;-145.63;59.86;39303.91;5059645;28;20081;-67
2023/12/18 09:32:41;;;;;;;7.93;4.50;;;;;;;-145.63;59.71;39298.03;5062481;28;21304;-68
2023/12/18 09:35:07;;;;;;;10.15;4.25;;;;;;;-145.63;60.50;39315.66;5062357;28;20183;-67
2023/12/18 09:37:33;;;;;;;9.10;4.15;;;;;;;-145.63;59.69;39317.59;5062850;28;20127;-68
2023/12/18 09:39:58;;;;;;;8.45;4.78;;;;;;;-145.63;59.19;39301.94;5063412;28;20025;-66
2023/12/18 09:42:25;;;;;;;11.90;4.80;;;;;;;-145.63;59.54;38613.59;5063706;28;20025;-67
2023/12/18 09:44:51;;;;;;;7.47;3.60;;;;;;;-145.63;59.13;39303.91;5063147;28;20020;-66
2023/12/18 09:47:17;;;;;;;9.02;4.22;;;;;;;-145.63;59.23;39317.59;5062031;28;20052;-67
2023/12/18 09:49:44;;;;;;;7.72;4.35;;;;;;;-145.63;59.32;39290.22;5062433;28;20096;-67
2023/12/18 09:52:11;;;;;;;9.27;4.80;;;;;;;-145.63;59.18;39391.91;5060207;28;20017;-67
2023/12/18 09:54:42;;;;;;;9.02;4.60;;;;;;;-145.63;59.40;39305.88;5062356;28;20016;-67
2023/12/18 09:57:12;;;;;;;8.65;4.72;;;;;;;-145.63;59.65;39315.66;5060124;28;20056;-67
2023/12/18 09:59:38;;;;;;;5.60;3.65;;;;;;;-145.63;59.87;39174.84;5061272;28;20047;-67
2023/12/18 10:02:04;;;;;;;7.65;4.22;;;;;;;-145.63;59.90;39395.84;5063015;28;20233;-68
2023/12/18 10:04:29;;;;;;;8.30;3.97;;;;;;;-145.63;60.17;39346.94;5062291;28;20033;-67
2023/12/18 10:06:55;;;;;;;6.75;3.70;;;;;;;-145.63;59.57;39321.50;5062798;28;20029;-66
2023/12/18 10:09:21;;;;;;;5.72;3.70;;;;;;;-145.63;60.21;39317.59;5059164;28;20320;-68
2023/12/18 10:11:48;;;;;;;7.05;3.85;;;;;;;-145.63;60.35;39325.41;5071440;28;20077;-67
2023/12/18 10:14:17;;;;;;;5.68;3.55;;;;;;;-145.63;60.12;39325.41;5055242;28;20048;-68
2023/12/18 10:16:43;;;;;;;7.22;4.10;;;;;;;-145.63;59.89;39317.59;5063229;28;20036;-67
2023/12/18 10:19:10;;;;;;;8.73;3.65;;;;;;;-145.63;59.88;39305.88;5062881;28;20029;-67
2023/12/18 10:21:39;;;;;;;8.10;3.88;;;;;;;-145.63;59.57;39335.19;5063098;28;20043;-68
2023/12/18 10:24:07;;;;;;;6.97;4.45;;;;;;;-145.63;60.01;39401.69;5062517;28;20087;-68
2023/12/18 10:26:33;;;;;;;8.23;4.65;;;;;;;-145.63;60.34;39331.28;5060808;28;20033;-67
2023/12/18 10:28:59;;;;;;;9.48;4.97;;;;;;;-145.63;60.32;39329.34;5061929;28;20032;-68
2023/12/18 10:31:25;;;;;;;6.20;4.47;;;;;;;-145.63;60.56;39346.94;5050854;28;20024;-67
2023/12/18 10:33:54;;;;;;;6.10;4.15;;;;;;;-145.63;60.50;39311.72;5062630;28;20016;-67
2023/12/18 10:36:23;;;;;;;6.70;4.50;;;;;;;-145.63;60.67;39372.34;5051357;28;20053;-67
2023/12/18 10:38:50;;;;;;;8.63;5.20;;;;;;;-145.63;60.74;39333.25;5049782;28;20104;-67
2023/12/18 10:41:21;;;;;;;7.82;4.45;;;;;;;-145.63;60.71;39358.66;5054932;28;20060;-67
2023/12/18 10:43:49;;;;;;;8.68;5.00;;;;;;;-145.63;60.82;39358.66;5062212;28;20032;-66
2023/12/18 10:46:15;;;;;;;9.80;5.15;;;;;;;-145.63;60.71;39356.72;5062224;28;20079;-67
2023/12/18 10:48:48;;;;;;;9.43;5.72;;;;;;;-145.63;60.57;39352.81;5062464;28;20318;-68
2023/12/18 10:51:16;;;;;;;11.55;5.47;;;;;;;-145.63;60.74;39346.94;5062518;28;20051;-68
2023/12/18 10:53:42;;;;;;;8.65;5.07;;;;;;;-145.63;60.93;39386.06;5062253;28;20025;-68
2023/12/18 10:56:09;;;;;;;9.45;4.93;;;;;;;-145.63;60.68;39378.22;5060551;28;20328;-68
2023/12/18 10:58:37;;;;;;;11.02;6.28;;;;;;;-145.63;60.58;39384.09;5042561;28;20025;-68
2023/12/18 11:01:07;;;;;;;11.45;6.25;;;;;;;-145.63;60.98;39348.88;5059463;28;20063;-67
2023/12/18 11:03:34;;;;;;;7.47;6.00;;;;;;;-145.63;61.24;39348.88;5049375;28;20033;-65
2023/12/18 11:06:00;;;;;;;9.05;6.07;;;;;;;-145.63;61.76;39364.53;5057426;28;20104;-66
2023/12/18 11:08:26;;;;;;;11.05;5.13;;;;;;;-145.63;61.73;39344.97;5061903;28;20024;-68
2023/12/18 11:10:53;;;;;;;7.15;4.97;;;;;;;-145.63;61.39;39399.75;5062000;28;20075;-68